Time;durP1;ratioP1;P1;durP2;ratioP2;P2;SDS_P1;SDS_P2;PMS_P1;PMS_P2;Temp;Humidity;BMP_temperature;BMP_pressure;BME280_temperature;BME280_humidity;BME280_pressure;Samples;Min_cycle;Max_cycle;Signal;HPM_P1;HPM_P2
2022/11/27 00:02:15;;;;;;;;;;;;;;;7.79;80.56;102745.56;5108802;28;19927;-62
2022/11/27 00:04:40;;;;;;;;;;;;;;;7.82;80.76;102750.78;5103973;28;19915;-64
2022/11/27 00:07:05;;;;;;;;;;;;;;;7.80;80.84;102744.69;5103457;28;19920;-64
2022/11/27 00:09:32;;;;;;;;;;;;;;;7.81;80.87;102743.81;5085955;28;19926;-64
2022/11/27 00:11:57;;;;;;;;;;;;;;;7.78;80.92;102741.25;5106872;27;19915;-64
2022/11/27 00:14:23;;;;;;;;;;;;;;;7.79;81.08;102745.56;5106319;28;20355;-64
2022/11/27 00:16:48;;;;;;;;;;;;;;;7.82;80.91;102742.06;5099063;27;20526;-63
2022/11/27 00:19:13;;;;;;;;;;;;;;;7.86;81.04;102743.75;5102776;28;20356;-63
2022/11/27 00:21:39;;;;;;;;;;;;;;;7.88;80.85;102749.81;5105511;28;19978;-63
2022/11/27 00:24:05;;;;;;;;;;;;;;;7.87;80.94;102745.47;5102103;28;20007;-62
2022/11/27 00:26:30;;;;;;;;;;;;;;;7.89;81.04;102744.56;5093215;28;19920;-63
2022/11/27 00:28:56;;;;;;;;;;;;;;;7.93;80.92;102742.78;5106598;28;19920;-62
2022/11/27 00:31:25;;;;;;;;;;;;;;;7.93;80.91;102733.16;5092234;27;19928;-64
2022/11/27 00:33:52;;;;;;;;;;;;;;;8.00;81.01;102743.53;5100716;28;19923;-63
2022/11/27 00:36:17;;;;;;;;;;;;;;;7.99;80.86;102741.81;5104962;28;19923;-65
2022/11/27 00:38:43;;;;;;;;;;;;;;;8.02;80.92;102744.41;5105111;28;19924;-63
2022/11/27 00:41:14;;;;;;;;;;;;;;;8.00;80.97;102731.31;5105276;27;19920;-63
2022/11/27 00:43:39;;;;;;;;;;;;;;;7.99;80.84;102733.94;5109738;27;20027;-65
2022/11/27 00:46:05;;;;;;;;;;;;;;;7.99;80.75;102733.94;5110129;27;20375;-64
2022/11/27 00:48:31;;;;;;;;;;;;;;;7.96;80.89;102733.97;5108407;27;20404;-63
2022/11/27 00:50:59;;;;;;;;;;;;;;;7.91;80.93;102732.31;5109161;27;20383;-64
2022/11/27 00:53:25;;;;;;;;;;;;;;;7.90;81.06;102733.22;5108415;28;19919;-64
2022/11/27 00:55:50;;;;;;;;;;;;;;;7.89;81.07;102728.84;5110560;28;19919;-65
2022/11/27 00:58:15;;;;;;;;;;;;;;;7.90;81.04;102727.97;5112269;28;19915;-64
2022/11/27 01:00:41;;;;;;;;;;;;;;;7.87;80.99;102730.63;5109342;28;20426;-63
2022/11/27 01:03:06;;;;;;;;;;;;;;;7.86;80.88;102733.28;5111889;28;19922;-64
2022/11/27 01:05:34;;;;;;;;;;;;;;;7.82;80.98;102737.66;5106118;27;19950;-63
2022/11/27 01:07:59;;;;;;;;;;;;;;;7.81;81.09;102738.56;5112056;27;19975;-62
2022/11/27 01:10:24;;;;;;;;;;;;;;;7.80;81.22;102741.22;5110315;27;20344;-61
2022/11/27 01:12:50;;;;;;;;;;;;;;;7.78;81.25;102736.00;5107058;28;19920;-61
2022/11/27 01:15:15;;;;;;;;;;;;;;;7.79;81.44;102740.31;5085873;28;19931;-60
2022/11/27 01:17:40;;;;;;;;;;;;;;;7.81;81.63;102740.31;5101481;28;20358;-62
2022/11/27 01:20:06;;;;;;;;;;;;;;;7.85;81.51;102742.88;5108856;28;19920;-64
2022/11/27 01:22:31;;;;;;;;;;;;;;;7.86;81.53;102733.28;5110262;28;19924;-63
2022/11/27 01:24:57;;;;;;;;;;;;;;;7.87;81.48;102741.09;5113307;27;20355;-65
2022/11/27 01:27:22;;;;;;;;;;;;;;;7.86;81.94;102739.38;5110144;28;19923;-64
2022/11/27 01:29:47;;;;;;;;;;;;;;;7.88;81.68;102737.59;5108288;28;20378;-62
2022/11/27 01:32:13;;;;;;;;;;;;;;;7.89;81.73;102736.72;5111851;28;20015;-63
2022/11/27 01:34:38;;;;;;;;;;;;;;;7.90;81.68;102727.97;5104886;28;19931;-65
2022/11/27 01:37:03;;;;;;;;;;;;;;;7.89;81.73;102723.59;5107370;28;20341;-65
2022/11/27 01:39:29;;;;;;;;;;;;;;;7.88;81.86;102721.00;5091972;28;19920;-63
2022/11/27 01:41:54;;;;;;;;;;;;;;;7.90;81.88;102719.22;5110399;27;19931;-64
2022/11/27 01:44:22;;;;;;;;;;;;;;;7.91;81.86;102721.84;5088415;28;20002;-65
2022/11/27 01:46:51;;;;;;;;;;;;;;;7.91;81.72;102719.22;5087589;28;20362;-63
2022/11/27 01:49:19;;;;;;;;;;;;;;;7.91;81.80;102721.84;5103535;28;20022;-64
2022/11/27 01:52:02;;;;;;;;;;;;;;;7.92;81.95;102723.56;5105533;28;19916;-63
2022/11/27 01:54:31;;;;;;;;;;;;;;;7.93;81.72;102724.41;5107544;28;19938;-62
2022/11/27 01:57:00;;;;;;;;;;;;;;;7.95;81.81;102725.28;5109141;28;19916;-64
2022/11/27 01:59:25;;;;;;;;;;;;;;;7.92;81.78;102713.09;5108595;27;20317;-64
2022/11/27 02:01:51;;;;;;;;;;;;;;;7.92;81.97;102720.06;5111461;28;19916;-65
2022/11/27 02:04:17;;;;;;;;;;;;;;;7.91;81.81;102711.34;5110372;28;19916;-65
2022/11/27 02:06:42;;;;;;;;;;;;;;;7.90;81.91;102709.63;5108277;28;19939;-62
2022/11/27 02:09:07;;;;;;;;;;;;;;;7.91;81.90;102700.88;5110981;27;19916;-64
2022/11/27 02:11:59;;;;;;;;;;;;;;;7.93;82.00;102706.94;5106165;27;20494;-65
2022/11/27 02:14:27;;;;;;;;;;;;;;;7.93;81.96;102706.06;5082023;27;20306;-65
2022/11/27 02:16:52;;;;;;;;;;;;;;;7.96;82.17;102705.16;5110855;27;19920;-63
2022/11/27 02:19:32;;;;;;;;;;;;;;;7.96;82.12;102703.41;5106673;28;19916;-65
2022/11/27 02:22:16;;;;;;;;;;;;;;;7.96;81.92;102692.03;5085137;28;19923;-65
2022/11/27 02:24:47;;;;;;;;;;;;;;;7.93;82.04;102688.59;5083208;28;20373;-64
2022/11/27 02:27:16;;;;;;;;;;;;;;;7.94;82.16;102690.31;5105267;27;20012;-64
2022/11/27 02:29:43;;;;;;;;;;;;;;;7.97;82.20;102688.53;5083467;28;19923;-64
2022/11/27 02:32:11;;;;;;;;;;;;;;;7.96;82.23;102686.78;5097117;28;20463;-64
2022/11/27 02:34:53;;;;;;;;;;;;;;;7.98;82.14;102674.53;5099797;28;19923;-63
2022/11/27 02:37:27;;;;;;;;;;;;;;;7.97;82.12;102670.19;5109969;28;19918;-62
2022/11/27 02:40:02;;;;;;;;;;;;;;;7.97;82.20;102651.81;5106272;28;19923;-63
2022/11/27 02:42:30;;;;;;;;;;;;;;;8.00;82.20;102651.78;5102341;28;19923;-64
2022/11/27 02:45:08;;;;;;;;;;;;;;;7.99;82.12;102645.69;5107241;28;19927;-62
2022/11/27 02:47:33;;;;;;;;;;;;;;;8.00;82.15;102639.56;5106687;27;20354;-64
2022/11/27 02:49:59;;;;;;;;;;;;;;;8.02;82.06;102634.28;5106210;27;20012;-63
2022/11/27 02:52:26;;;;;;;;;;;;;;;8.01;81.87;102622.06;5108716;28;19919;-64
2022/11/27 02:54:55;;;;;;;;;;;;;;;8.01;81.97;102622.06;5104008;28;19915;-63
2022/11/27 02:57:22;;;;;;;;;;;;;;;8.01;81.98;102622.94;5103042;27;20302;-64
2022/11/27 02:59:49;;;;;;;;;;;;;;;8.02;81.92;102634.28;5104731;27;20300;-65
2022/11/27 03:02:22;;;;;;;;;;;;;;;8.02;81.91;102634.28;5112191;27;19924;-64
2022/11/27 03:04:49;;;;;;;;;;;;;;;8.02;82.01;102639.53;5108321;28;19911;-65
2022/11/27 03:07:17;;;;;;;;;;;;;;;8.03;81.97;102641.25;5117939;27;19916;-63
2022/11/27 03:09:45;;;;;;;;;;;;;;;8.05;81.82;102642.94;5107016;27;19927;-64
2022/11/27 03:12:11;;;;;;;;;;;;;;;8.07;81.81;102648.19;5106709;28;19926;-64
2022/11/27 03:14:37;;;;;;;;;;;;;;;8.06;81.68;102651.69;5103045;28;19924;-63
2022/11/27 03:17:19;;;;;;;;;;;;;;;8.05;81.72;102660.44;5103298;28;19954;-64
2022/11/27 03:19:49;;;;;;;;;;;;;;;8.06;81.75;102656.94;5107958;28;20409;-65
2022/11/27 03:22:15;;;;;;;;;;;;;;;8.06;81.74;102662.19;5109621;28;19959;-62
2022/11/27 03:24:40;;;;;;;;;;;;;;;8.07;81.79;102666.53;5109857;28;19938;-62
2022/11/27 03:27:07;;;;;;;;;;;;;;;8.07;81.72;102658.69;5106651;28;19916;-62
2022/11/27 03:29:35;;;;;;;;;;;;;;;8.07;81.77;102654.28;5107854;28;20387;-62
2022/11/27 03:32:02;;;;;;;;;;;;;;;8.05;81.78;102657.81;5100916;28;20010;-63
2022/11/27 03:34:27;;;;;;;;;;;;;;;8.05;81.72;102655.22;5098030;28;20379;-62
2022/11/27 03:36:53;;;;;;;;;;;;;;;8.03;81.80;102652.59;5101881;28;19926;-63
2022/11/27 03:39:19;;;;;;;;;;;;;;;8.05;81.92;102663.94;5106355;28;19919;-63
2022/11/27 03:42:00;;;;;;;;;;;;;;;8.05;81.76;102663.06;5109980;28;19950;-62
2022/11/27 03:44:25;;;;;;;;;;;;;;;8.06;81.68;102664.81;5107484;28;19976;-62
2022/11/27 03:46:50;;;;;;;;;;;;;;;8.08;81.71;102665.66;5109580;28;19915;-62
2022/11/27 03:49:18;;;;;;;;;;;;;;;8.12;81.60;102667.31;5108507;28;20418;-61
2022/11/27 03:52:04;;;;;;;;;;;;;;;8.17;81.63;102664.59;5108935;28;20011;-63
2022/11/27 03:54:47;;;;;;;;;;;;;;;8.20;81.39;102660.19;5110759;28;19922;-63
2022/11/27 03:57:16;;;;;;;;;;;;;;;8.21;81.38;102655.81;5118991;27;20332;-63
2022/11/27 03:59:43;;;;;;;;;;;;;;;8.22;81.38;102663.66;5089316;28;19923;-63
2022/11/27 04:02:12;;;;;;;;;;;;;;;8.20;81.24;102654.94;5114190;28;19965;-64
2022/11/27 04:04:38;;;;;;;;;;;;;;;8.22;81.43;102650.56;5109923;27;19928;-63
2022/11/27 04:07:03;;;;;;;;;;;;;;;8.24;81.32;102650.50;5109453;27;20038;-63
2022/11/27 04:09:28;;;;;;;;;;;;;;;8.23;81.35;102651.41;5111643;28;19931;-63
2022/11/27 04:11:53;;;;;;;;;;;;;;;8.21;81.35;102663.66;5114251;27;20005;-61
2022/11/27 04:14:19;;;;;;;;;;;;;;;8.21;81.52;102651.44;5110182;27;19935;-63
2022/11/27 04:16:44;;;;;;;;;;;;;;;8.20;81.50;102664.56;5113487;28;19916;-63
2022/11/27 04:19:09;;;;;;;;;;;;;;;8.17;81.65;102660.25;5111352;28;19919;-63
2022/11/27 04:21:35;;;;;;;;;;;;;;;8.17;81.77;102664.59;5104615;27;20012;-63
2022/11/27 04:24:00;;;;;;;;;;;;;;;8.17;81.74;102668.09;5109170;28;19912;-62
2022/11/27 04:26:25;;;;;;;;;;;;;;;8.18;81.67;102672.47;5113047;28;19916;-63
2022/11/27 04:28:51;;;;;;;;;;;;;;;8.19;81.78;102662.81;5104412;28;20267;-63
2022/11/27 04:31:16;;;;;;;;;;;;;;;8.19;81.84;102653.22;5112626;27;19915;-62
2022/11/27 04:33:41;;;;;;;;;;;;;;;8.17;81.70;102657.63;5108138;28;19920;-63
2022/11/27 04:36:07;;;;;;;;;;;;;;;8.19;81.78;102658.47;5110257;28;19924;-62
2022/11/27 04:38:32;;;;;;;;;;;;;;;8.20;81.72;102662.81;5099088;28;19920;-63
2022/11/27 04:40:57;;;;;;;;;;;;;;;8.24;81.63;102661.00;5105261;28;20061;-63
2022/11/27 04:43:22;;;;;;;;;;;;;;;8.28;81.54;102660.06;5104589;28;19928;-63
2022/11/27 04:45:48;;;;;;;;;;;;;;;8.28;81.43;102656.56;5110245;28;19912;-63
2022/11/27 04:48:13;;;;;;;;;;;;;;;8.30;81.43;102660.03;5109596;27;20302;-63
2022/11/27 04:50:39;;;;;;;;;;;;;;;8.30;81.39;102660.03;5110827;28;19959;-63
2022/11/27 04:53:04;;;;;;;;;;;;;;;8.29;81.42;102663.53;5110658;27;20274;-63
2022/11/27 04:55:29;;;;;;;;;;;;;;;8.28;81.33;102660.06;5108083;28;19924;-63
2022/11/27 04:57:55;;;;;;;;;;;;;;;8.28;81.41;102661.81;5105238;28;19926;-63
2022/11/27 05:00:20;;;;;;;;;;;;;;;8.26;81.37;102650.47;5106378;28;19998;-65
2022/11/27 05:02:45;;;;;;;;;;;;;;;8.23;81.43;102649.66;5112381;27;19912;-65
2022/11/27 05:05:11;;;;;;;;;;;;;;;8.22;81.32;102650.56;5112907;27;20006;-65
2022/11/27 05:07:36;;;;;;;;;;;;;;;8.21;81.45;102648.81;5105900;28;19919;-65
2022/11/27 05:10:02;;;;;;;;;;;;;;;8.21;81.59;102651.44;5102293;27;19916;-65
2022/11/27 05:12:27;;;;;;;;;;;;;;;8.20;81.65;102649.72;5108522;27;19922;-65
2022/11/27 05:14:53;;;;;;;;;;;;;;;8.19;81.53;102647.09;5108970;27;20057;-64
2022/11/27 05:17:18;;;;;;;;;;;;;;;8.18;81.63;102643.63;5111277;27;19920;-65
2022/11/27 05:19:43;;;;;;;;;;;;;;;8.17;81.66;102644.50;5107393;28;19920;-64
2022/11/27 05:22:08;;;;;;;;;;;;;;;8.17;81.70;102649.75;5110335;28;20341;-65
2022/11/27 05:24:34;;;;;;;;;;;;;;;8.16;81.67;102647.16;5102760;28;19928;-64
2022/11/27 05:26:59;;;;;;;;;;;;;;;8.15;81.59;102654.16;5107206;27;19919;-64
2022/11/27 05:29:25;;;;;;;;;;;;;;;8.15;81.50;102650.69;5104984;28;19947;-64
2022/11/27 05:31:50;;;;;;;;;;;;;;;8.14;81.60;102652.41;5104438;28;19927;-64
2022/11/27 05:34:15;;;;;;;;;;;;;;;8.11;81.55;102655.09;5110371;27;19923;-65
2022/11/27 05:36:41;;;;;;;;;;;;;;;8.12;81.51;102651.56;5104789;28;19920;-64
2022/11/27 05:39:07;;;;;;;;;;;;;;;8.13;81.54;102650.69;5107965;28;19916;-65
2022/11/27 05:41:33;;;;;;;;;;;;;;;8.16;81.50;102652.41;5105486;28;19926;-65
2022/11/27 05:43:59;;;;;;;;;;;;;;;8.15;81.33;102651.53;5104456;28;19911;-64
2022/11/27 05:46:24;;;;;;;;;;;;;;;8.12;81.44;102651.56;5108143;27;19919;-62
2022/11/27 05:48:49;;;;;;;;;;;;;;;8.09;81.39;102644.63;5105106;28;19923;-64
2022/11/27 05:51:15;;;;;;;;;;;;;;;8.06;81.58;102635.97;5108191;28;19916;-62
2022/11/27 05:53:40;;;;;;;;;;;;;;;8.05;81.59;102639.47;5110115;27;19950;-63
2022/11/27 05:56:08;;;;;;;;;;;;;;;8.05;81.58;102639.47;5106652;27;19920;-62
2022/11/27 05:58:33;;;;;;;;;;;;;;;8.06;81.95;102643.84;5108332;28;19926;-62
2022/11/27 06:00:59;;;;;;;;;;;;;;;8.05;81.57;102637.69;5107425;28;20431;-62
2022/11/27 06:03:24;;;;;;;;;;;;;;;8.06;81.54;102641.22;5088392;28;19955;-64
2022/11/27 06:05:50;;;;;;;;;;;;;;;8.05;81.73;102635.09;5109370;28;20021;-61
2022/11/27 06:08:15;;;;;;;;;;;;;;;8.06;81.59;102630.72;5108105;28;19915;-62
2022/11/27 06:10:41;;;;;;;;;;;;;;;8.06;81.63;102635.97;5105476;28;19923;-65
2022/11/27 06:13:06;;;;;;;;;;;;;;;8.08;81.73;102634.19;5111559;27;19947;-62
2022/11/27 06:15:31;;;;;;;;;;;;;;;8.08;81.59;102628.94;5110437;28;19923;-63
2022/11/27 06:17:57;;;;;;;;;;;;;;;8.10;81.41;102627.13;5108323;28;19974;-62
2022/11/27 06:20:22;;;;;;;;;;;;;;;8.11;81.49;102628.00;5110109;28;19955;-59
2022/11/27 06:22:48;;;;;;;;;;;;;;;8.09;81.36;102618.41;5088615;28;19923;-62
2022/11/27 06:25:13;;;;;;;;;;;;;;;8.09;81.41;102626.28;5108103;28;19924;-62
2022/11/27 06:27:38;;;;;;;;;;;;;;;8.09;81.27;102628.06;5105111;28;19980;-61
2022/11/27 06:30:12;;;;;;;;;;;;;;;8.11;81.31;102628.88;5089728;27;19920;-62
2022/11/27 06:32:37;;;;;;;;;;;;;;;8.10;81.19;102629.75;5082375;28;19989;-64
2022/11/27 06:35:03;;;;;;;;;;;;;;;8.09;81.34;102628.06;5083965;28;19924;-60
2022/11/27 06:37:29;;;;;;;;;;;;;;;8.08;81.29;102628.94;5089507;28;19924;-62
2022/11/27 06:39:54;;;;;;;;;;;;;;;8.07;81.20;102632.47;5083501;28;19923;-60
2022/11/27 06:42:19;;;;;;;;;;;;;;;8.05;81.32;102632.47;5088602;28;19925;-62
2022/11/27 06:44:45;;;;;;;;;;;;;;;8.04;81.25;102635.13;5085221;28;20393;-60
2022/11/27 06:47:10;;;;;;;;;;;;;;;8.03;81.31;102620.28;5084511;28;19920;-61
2022/11/27 06:49:36;;;;;;;;;;;;;;;8.02;81.18;102615.94;5083652;28;19935;-60
2022/11/27 06:52:01;;;;;;;;;;;;;;;8.03;81.24;102612.41;5084332;28;19977;-60
2022/11/27 06:54:26;;;;;;;;;;;;;;;8.01;81.22;102607.22;5087692;28;19951;-62
2022/11/27 06:56:52;;;;;;;;;;;;;;;7.99;80.98;102605.47;5081249;28;20350;-62
2022/11/27 06:59:18;;;;;;;;;;;;;;;7.98;80.99;102609.88;5087424;28;19920;-63
2022/11/27 07:01:43;;;;;;;;;;;;;;;8.00;80.90;102604.59;5081969;28;21102;-62
2022/11/27 07:04:10;;;;;;;;;;;;;;;8.01;80.82;102616.81;5081659;28;19924;-64
2022/11/27 07:06:35;;;;;;;;;;;;;;;8.02;80.69;102622.03;5084004;28;19978;-64
2022/11/27 07:09:01;;;;;;;;;;;;;;;8.02;80.59;102626.41;5077171;28;20454;-63
2022/11/27 07:11:27;;;;;;;;;;;;;;;8.03;80.74;102621.13;5083958;28;20361;-63
2022/11/27 07:13:54;;;;;;;;;;;;;;;8.07;80.65;102628.06;5081510;28;20380;-64
2022/11/27 07:16:19;;;;;;;;;;;;;;;8.10;80.48;102627.13;5089161;28;20307;-62
2022/11/27 07:18:46;;;;;;;;;;;;;;;8.15;80.38;102621.84;5077533;28;19936;-63
2022/11/27 07:21:11;;;;;;;;;;;;;;;8.20;80.14;102622.59;5082371;28;19920;-63
2022/11/27 07:23:37;;;;;;;;;;;;;;;8.21;80.04;102625.22;5083653;28;20387;-63
2022/11/27 07:26:13;;;;;;;;;;;;;;;8.21;79.74;102625.22;5082424;28;19920;-64
2022/11/27 07:28:38;;;;;;;;;;;;;;;8.18;79.59;102633.13;5088660;28;19919;-64
2022/11/27 07:31:04;;;;;;;;;;;;;;;8.13;79.95;102621.00;5085290;28;20420;-62
2022/11/27 07:33:29;;;;;;;;;;;;;;;8.13;79.90;102632.34;5085889;28;19944;-61
2022/11/27 07:35:59;;;;;;;;;;;;;;;8.09;79.68;102625.44;5088323;28;20041;-64
2022/11/27 07:38:24;;;;;;;;;;;;;;;8.08;79.72;102615.84;5082556;28;19920;-64
2022/11/27 07:40:53;;;;;;;;;;;;;;;8.10;79.94;102616.66;5075854;28;19924;-58
2022/11/27 07:43:19;;;;;;;;;;;;;;;8.15;79.86;102611.34;5073430;28;19948;-61
2022/11/27 07:45:44;;;;;;;;;;;;;;;8.19;79.86;102618.25;5072307;28;19963;-62
2022/11/27 07:48:09;;;;;;;;;;;;;;;8.17;79.56;102610.41;5073389;28;19923;-61
2022/11/27 07:50:35;;;;;;;;;;;;;;;8.19;79.43;102613.88;5071429;28;19919;-64
2022/11/27 07:53:00;;;;;;;;;;;;;;;8.19;79.58;102621.75;5072828;28;20509;-61
2022/11/27 07:55:25;;;;;;;;;;;;;;;8.18;79.67;102614.78;5066364;28;20577;-59
2022/11/27 07:57:51;;;;;;;;;;;;;;;8.17;79.58;102620.91;5064082;28;19920;-63
2022/11/27 08:00:16;;;;;;;;;;;;;;;8.17;79.72;102614.78;5071317;28;20379;-61
2022/11/27 08:02:41;;;;;;;;;;;;;;;8.17;79.93;102612.16;5068866;28;19924;-61
2022/11/27 08:05:07;;;;;;;;;;;;;;;8.16;79.86;102611.31;5070573;28;19924;-61
2022/11/27 08:07:32;;;;;;;;;;;;;;;8.20;79.89;102606.88;5068794;28;19925;-61
2022/11/27 08:09:58;;;;;;;;;;;;;;;8.21;79.89;102608.59;5070569;28;19929;-62
2022/11/27 08:12:24;;;;;;;;;;;;;;;8.23;79.83;102618.19;5090405;28;19984;-61
2022/11/27 08:14:49;;;;;;;;;;;;;;;8.22;79.65;102611.22;5065977;28;19916;-63
2022/11/27 08:17:15;;;;;;;;;;;;;;;8.21;79.69;102612.09;5071666;28;19913;-62
2022/11/27 08:19:40;;;;;;;;;;;;;;;8.21;79.91;102606.84;5067531;28;19920;-64
2022/11/27 08:22:09;;;;;;;;;;;;;;;8.19;79.99;102611.25;5071073;28;20299;-61
2022/11/27 08:24:37;;;;;;;;;;;;;;;8.18;79.93;102606.91;5063748;28;19916;-63
2022/11/27 08:27:02;;;;;;;;;;;;;;;8.18;80.00;102606.03;5075497;28;19921;-63
2022/11/27 08:29:28;;;;;;;;;;;;;;;8.21;80.14;102603.34;5072911;28;19932;-63
2022/11/27 08:31:53;;;;;;;;;;;;;;;8.19;79.92;102603.38;5073846;28;20367;-61
2022/11/27 08:34:18;;;;;;;;;;;;;;;8.21;80.23;102606.84;5072720;28;19924;-60
2022/11/27 08:36:44;;;;;;;;;;;;;;;8.22;80.37;102602.47;5071678;28;20423;-63
2022/11/27 08:39:09;;;;;;;;;;;;;;;8.22;80.28;102600.72;5069106;28;19920;-61
2022/11/27 08:41:34;;;;;;;;;;;;;;;8.22;80.06;102603.34;5067436;28;19921;-62
2022/11/27 08:44:00;;;;;;;;;;;;;;;8.25;79.91;102610.28;5072114;28;20418;-64
2022/11/27 08:46:25;;;;;;;;;;;;;;;8.32;80.13;102603.16;5072264;28;20428;-64
2022/11/27 08:48:50;;;;;;;;;;;;;;;8.34;79.78;102599.59;5057895;28;20031;-64
2022/11/27 08:51:16;;;;;;;;;;;;;;;8.35;79.78;102600.50;5066228;28;20024;-65
2022/11/27 08:53:44;;;;;;;;;;;;;;;8.35;79.73;102603.97;5067029;28;19987;-63
2022/11/27 08:56:17;;;;;;;;;;;;;;;8.41;79.84;102604.75;5079920;28;20379;-64
2022/11/27 08:58:42;;;;;;;;;;;;;;;8.42;79.73;102594.22;5052629;28;20007;-63
2022/11/27 09:01:14;;;;;;;;;;;;;;;8.46;79.93;102593.28;5066712;28;20015;-64
2022/11/27 09:03:39;;;;;;;;;;;;;;;8.50;79.78;102589.75;5071391;28;19916;-60
2022/11/27 09:06:05;;;;;;;;;;;;;;;8.52;79.75;102587.97;5066474;28;19920;-59
2022/11/27 09:08:30;;;;;;;;;;;;;;;8.58;79.66;102588.72;5063348;28;19942;-59
2022/11/27 09:10:59;;;;;;;;;;;;;;;8.62;79.45;102582.50;5071483;28;19924;-61
2022/11/27 09:13:24;;;;;;;;;;;;;;;8.67;79.37;102588.53;5058481;28;19974;-63
2022/11/27 09:15:49;;;;;;;;;;;;;;;8.71;79.42;102587.56;5100817;22;19904;-63
2022/11/27 09:18:14;;;;;;;;;;;;;;;8.75;79.33;102591.00;5057467;28;19974;-62
2022/11/27 09:20:40;;;;;;;;;;;;;;;8.77;79.13;102582.19;5064288;28;20573;-62
2022/11/27 09:23:05;;;;;;;;;;;;;;;8.80;79.05;102587.41;5058147;28;19977;-62
2022/11/27 09:25:31;;;;;;;;;;;;;;;8.84;79.02;102583.81;5060317;28;19926;-62
2022/11/27 09:27:56;;;;;;;;;;;;;;;8.85;78.84;102584.66;5066233;28;19985;-63
2022/11/27 09:30:21;;;;;;;;;;;;;;;8.87;78.59;102576.75;5060415;28;20011;-62
2022/11/27 09:32:47;;;;;;;;;;;;;;;8.88;78.51;102583.72;5064947;28;19955;-62
2022/11/27 09:35:13;;;;;;;;;;;;;;;8.88;78.50;102584.59;5065068;28;20473;-62
2022/11/27 09:37:38;;;;;;;;;;;;;;;8.94;78.41;102586.25;5056176;28;20402;-63
2022/11/27 09:40:04;;;;;;;;;;;;;;;8.99;78.26;102584.38;5055201;28;19924;-61
2022/11/27 09:42:36;;;;;;;;;;;;;;;8.99;78.28;102581.75;5060854;28;19931;-61
2022/11/27 09:45:04;;;;;;;;;;;;;;;9.03;78.28;102578.16;5063451;28;19962;-61
2022/11/27 09:47:36;;;;;;;;;;;;;;;9.06;78.21;102579.88;5069980;28;19935;-62
2022/11/27 09:50:06;;;;;;;;;;;;;;;9.09;78.09;102583.28;5062713;28;19991;-62
2022/11/27 09:52:42;;;;;;;;;;;;;;;9.11;78.08;102581.50;5061961;28;19920;-62
2022/11/27 09:55:16;;;;;;;;;;;;;;;9.14;78.00;102575.28;5064935;28;19947;-62
2022/11/27 09:57:45;;;;;;;;;;;;;;;9.13;77.91;102578.81;5060310;28;19916;-62
2022/11/27 10:00:12;;;;;;;;;;;;;;;9.14;77.65;102570.91;5062233;28;20441;-60
2022/11/27 10:02:39;;;;;;;;;;;;;;;9.15;77.65;102572.63;5067506;28;19943;-62
2022/11/27 10:05:10;;;;;;;;;;;;;;;9.17;77.70;102569.97;5066662;28;20011;-62
2022/11/27 10:07:45;;;;;;;;;;;;;;;9.17;77.45;102576.97;5064876;28;19927;-60
2022/11/27 10:10:25;;;;;;;;;;;;;;;9.20;77.39;102575.16;5066856;28;19931;-61
2022/11/27 10:13:20;;;;;;;;;;;;;;;9.19;77.13;102567.31;5067100;28;19947;-62
2022/11/27 10:15:57;;;;;;;;;;;;;;;9.24;77.17;102566.28;5061166;28;19944;-62
2022/11/27 10:18:26;;;;;;;;;;;;;;;9.27;76.22;102562.75;5069744;28;19966;-59
2022/11/27 10:21:05;;;;;;;;;;;;;;;9.30;76.33;102562.69;5068712;28;20375;-60
2022/11/27 10:23:45;;;;;;;;;;;;;;;9.33;75.96;102548.63;5069958;28;19916;-61
2022/11/27 10:26:14;;;;;;;;;;;;;;;9.30;75.92;102560.91;5070340;28;19920;-62
2022/11/27 10:28:39;;;;;;;;;;;;;;;9.29;75.92;102558.34;5069032;28;20383;-62
2022/11/27 10:31:13;;;;;;;;;;;;;;;9.28;76.07;102546.94;5066839;28;19946;-61
2022/11/27 10:33:54;;;;;;;;;;;;;;;9.22;75.73;102552.38;5068149;28;19924;-59
2022/11/27 10:36:40;;;;;;;;;;;;;;;9.22;75.68;102544.47;5063774;28;20394;-62
2022/11/27 10:39:11;;;;;;;;;;;;;;;9.25;75.77;102546.16;5067156;28;20386;-59
2022/11/27 10:41:40;;;;;;;;;;;;;;;9.24;75.85;102542.66;5064486;28;19924;-60
2022/11/27 10:44:32;;;;;;;;;;;;;;;9.25;75.70;102540.91;5063136;28;19923;-60
2022/11/27 10:47:02;;;;;;;;;;;;;;;9.24;75.61;102544.44;5062226;28;19920;-61
2022/11/27 10:49:28;;;;;;;;;;;;;;;9.27;75.49;102545.22;5066445;28;19963;-60
2022/11/27 10:51:53;;;;;;;;;;;;;;;9.25;75.60;102543.53;5062644;28;19948;-60
2022/11/27 10:54:26;;;;;;;;;;;;;;;9.24;75.57;102536.56;5067789;28;19924;-59
2022/11/27 10:57:02;;;;;;;;;;;;;;;9.30;75.73;102539.06;5064492;28;19925;-60
2022/11/27 10:59:32;;;;;;;;;;;;;;;9.31;75.61;102532.88;5061982;28;19977;-63
2022/11/27 11:01:58;;;;;;;;;;;;;;;9.30;75.36;102537.28;5063643;28;20311;-63
2022/11/27 11:04:28;;;;;;;;;;;;;;;9.31;75.67;102538.13;5063286;28;19951;-62
2022/11/27 11:06:54;;;;;;;;;;;;;;;9.31;75.60;102530.25;5065606;28;19921;-58
2022/11/27 11:09:24;;;;;;;;;;;;;;;9.34;75.28;102534.56;5065153;28;19985;-58
2022/11/27 11:11:50;;;;;;;;;;;;;;;9.36;75.18;102527.53;5059978;28;19924;-59
2022/11/27 11:14:18;;;;;;;;;;;;;;;9.38;74.99;102525.69;5058102;28;19929;-60
2022/11/27 11:16:43;;;;;;;;;;;;;;;9.39;74.61;102525.69;5067026;28;19931;-59
2022/11/27 11:19:28;;;;;;;;;;;;;;;9.41;74.78;102526.50;5063190;28;19916;-60
2022/11/27 11:21:53;;;;;;;;;;;;;;;9.43;74.92;102523.84;5064740;28;19927;-60
2022/11/27 11:24:45;;;;;;;;;;;;;;;9.44;74.81;102526.44;5063438;28;20454;-62
2022/11/27 11:27:16;;;;;;;;;;;;;;;9.49;74.93;102512.31;5065088;28;19921;-58
2022/11/27 11:29:46;;;;;;;;;;;;;;;9.53;75.05;102511.34;5069782;28;20314;-61
2022/11/27 11:32:20;;;;;;;;;;;;;;;9.55;74.94;102502.50;5066459;28;20038;-58
2022/11/27 11:34:47;;;;;;;;;;;;;;;9.60;75.02;102495.38;5069409;28;19931;-59
2022/11/27 11:37:22;;;;;;;;;;;;;;;9.63;75.10;102494.44;5068187;28;19986;-58
2022/11/27 11:40:07;;;;;;;;;;;;;;;9.70;74.81;102496.00;5067176;28;19920;-61
2022/11/27 11:42:33;;;;;;;;;;;;;;;9.74;74.73;102497.66;5069682;28;19920;-57
2022/11/27 11:45:01;;;;;;;;;;;;;;;9.81;74.76;102502.75;5067815;28;20306;-57
2022/11/27 11:47:27;;;;;;;;;;;;;;;9.83;74.37;102500.94;5063043;28;19986;-59
2022/11/27 11:49:53;;;;;;;;;;;;;;;9.86;74.31;102499.09;5064101;28;20015;-59
2022/11/27 11:52:31;;;;;;;;;;;;;;;9.89;74.17;102493.75;5064216;28;20371;-62
2022/11/27 11:54:56;;;;;;;;;;;;;;;9.91;73.69;102488.44;5062746;28;20696;-60
2022/11/27 11:57:21;;;;;;;;;;;;;;;9.95;73.38;102484.81;5066539;28;20011;-58
2022/11/27 11:59:54;;;;;;;;;;;;;;;9.98;73.58;102481.28;5065812;28;19959;-60
2022/11/27 12:02:25;;;;;;;;;;;;;;;9.97;72.99;102483.03;5059473;28;19920;-58
2022/11/27 12:05:01;;;;;;;;;;;;;;;10.02;73.39;102490.78;5067288;28;19920;-63
2022/11/27 12:07:36;;;;;;;;;;;;;;;10.01;72.66;102489.94;5060550;28;19930;-60
2022/11/27 12:10:13;;;;;;;;;;;;;;;10.01;73.01;102489.94;5063387;28;20029;-61
2022/11/27 12:12:47;;;;;;;;;;;;;;;10.01;72.80;102495.19;5066863;28;19920;-63
2022/11/27 12:15:31;;;;;;;;;;;;;;;9.98;72.63;102489.16;5066843;28;19925;-59
2022/11/27 12:17:59;;;;;;;;;;;;;;;9.93;72.52;102481.38;5059240;28;19920;-60
2022/11/27 12:20:25;;;;;;;;;;;;;;;9.91;72.52;102483.19;5064569;28;20686;-60
2022/11/27 12:23:12;;;;;;;;;;;;;;;9.89;72.76;102475.34;5062595;28;19922;-57
2022/11/27 12:26:00;;;;;;;;;;;;;;;9.85;72.43;102472.84;5065968;28;19929;-64
2022/11/27 12:28:45;;;;;;;;;;;;;;;9.84;72.54;102468.50;5060561;28;19955;-64
2022/11/27 12:31:25;;;;;;;;;;;;;;;9.84;72.14;102476.38;5062027;28;19930;-61
2022/11/27 12:33:56;;;;;;;;;;;;;;;9.87;72.19;102468.41;5058843;28;20342;-59
2022/11/27 12:36:22;;;;;;;;;;;;;;;9.86;72.21;102469.31;5064757;28;20062;-62
2022/11/27 12:39:02;;;;;;;;;;;;;;;9.87;72.32;102471.88;5068836;28;20013;-59
2022/11/27 12:41:36;;;;;;;;;;;;;;;9.86;72.34;102474.56;5067858;28;20429;-63
2022/11/27 12:44:05;;;;;;;;;;;;;;;9.87;72.48;102461.38;5059782;28;19921;-64
2022/11/27 12:46:30;;;;;;;;;;;;;;;9.82;72.27;102458.03;5064240;28;20659;-64
2022/11/27 12:48:58;;;;;;;;;;;;;;;9.77;72.32;102459.91;5060643;28;19983;-58
2022/11/27 12:51:26;;;;;;;;;;;;;;;9.71;72.48;102444.28;5059625;28;19963;-59